sensor_id;sensor_type;location;lat;lon;timestamp;P1;durP1;ratioP1;P2;durP2;ratioP2
635;SDS011;302;50.206;8.196;2024-01-07T00:00:28;10.23;;;8.87;;
635;SDS011;302;50.206;8.196;2024-01-07T00:02:53;11.37;;;8.60;;
635;SDS011;302;50.206;8.196;2024-01-07T00:05:18;13.40;;;9.17;;
635;SDS011;302;50.206;8.196;2024-01-07T00:07:43;12.97;;;9.30;;
635;SDS011;302;50.206;8.196;2024-01-07T00:10:08;11.07;;;9.07;;
635;SDS011;302;50.206;8.196;2024-01-07T00:12:34;12.35;;;9.15;;
635;SDS011;302;50.206;8.196;2024-01-07T00:15:00;11.90;;;9.30;;
635;SDS011;302;50.206;8.196;2024-01-07T00:17:25;11.70;;;9.47;;
635;SDS011;302;50.206;8.196;2024-01-07T00:19:50;9.60;;;8.38;;
635;SDS011;302;50.206;8.196;2024-01-07T00:22:15;11.40;;;8.90;;
635;SDS011;302;50.206;8.196;2024-01-07T00:24:41;10.27;;;9.13;;
635;SDS011;302;50.206;8.196;2024-01-07T00:27:06;10.23;;;8.63;;
635;SDS011;302;50.206;8.196;2024-01-07T00:29:33;11.05;;;8.95;;
635;SDS011;302;50.206;8.196;2024-01-07T00:31:59;12.40;;;9.80;;
635;SDS011;302;50.206;8.196;2024-01-07T00:34:25;12.30;;;9.90;;
635;SDS011;302;50.206;8.196;2024-01-07T00:36:50;12.43;;;10.07;;
635;SDS011;302;50.206;8.196;2024-01-07T00:39:15;11.60;;;10.35;;
635;SDS011;302;50.206;8.196;2024-01-07T00:41:40;11.88;;;10.02;;
635;SDS011;302;50.206;8.196;2024-01-07T00:44:05;11.50;;;10.07;;
635;SDS011;302;50.206;8.196;2024-01-07T00:46:30;10.90;;;9.30;;
635;SDS011;302;50.206;8.196;2024-01-07T00:48:56;11.33;;;9.43;;
635;SDS011;302;50.206;8.196;2024-01-07T00:51:21;11.90;;;9.10;;
635;SDS011;302;50.206;8.196;2024-01-07T00:53:46;11.48;;;9.57;;
635;SDS011;302;50.206;8.196;2024-01-07T00:56:11;10.93;;;9.40;;
635;SDS011;302;50.206;8.196;2024-01-07T00:58:36;10.95;;;9.07;;
635;SDS011;302;50.206;8.196;2024-01-07T01:01:01;11.27;;;9.20;;
635;SDS011;302;50.206;8.196;2024-01-07T01:03:27;10.20;;;9.20;;
635;SDS011;302;50.206;8.196;2024-01-07T01:05:52;12.30;;;10.17;;
635;SDS011;302;50.206;8.196;2024-01-07T01:08:17;11.50;;;9.93;;
635;SDS011;302;50.206;8.196;2024-01-07T01:10:42;11.63;;;9.70;;
635;SDS011;302;50.206;8.196;2024-01-07T01:13:07;10.77;;;9.68;;
635;SDS011;302;50.206;8.196;2024-01-07T01:15:32;9.43;;;8.47;;
635;SDS011;302;50.206;8.196;2024-01-07T01:17:58;10.80;;;9.20;;
635;SDS011;302;50.206;8.196;2024-01-07T01:20:23;11.18;;;9.65;;
635;SDS011;302;50.206;8.196;2024-01-07T01:22:48;9.43;;;8.40;;
635;SDS011;302;50.206;8.196;2024-01-07T01:25:13;9.93;;;8.57;;
635;SDS011;302;50.206;8.196;2024-01-07T01:27:38;11.93;;;9.17;;
635;SDS011;302;50.206;8.196;2024-01-07T01:30:04;11.00;;;9.17;;
635;SDS011;302;50.206;8.196;2024-01-07T01:32:29;9.57;;;8.57;;
635;SDS011;302;50.206;8.196;2024-01-07T01:34:54;9.90;;;8.50;;
635;SDS011;302;50.206;8.196;2024-01-07T01:37:19;11.10;;;9.47;;
635;SDS011;302;50.206;8.196;2024-01-07T01:39:45;9.60;;;8.17;;
635;SDS011;302;50.206;8.196;2024-01-07T01:42:10;10.40;;;9.27;;
635;SDS011;302;50.206;8.196;2024-01-07T01:44:35;9.93;;;8.93;;
635;SDS011;302;50.206;8.196;2024-01-07T01:47:00;10.90;;;9.60;;
635;SDS011;302;50.206;8.196;2024-01-07T01:49:26;10.83;;;8.40;;
635;SDS011;302;50.206;8.196;2024-01-07T01:51:52;9.80;;;8.38;;
635;SDS011;302;50.206;8.196;2024-01-07T01:54:18;13.90;;;9.07;;
635;SDS011;302;50.206;8.196;2024-01-07T01:56:43;9.57;;;8.57;;
635;SDS011;302;50.206;8.196;2024-01-07T01:59:08;11.33;;;9.80;;
635;SDS011;302;50.206;8.196;2024-01-07T02:01:33;9.43;;;8.50;;
635;SDS011;302;50.206;8.196;2024-01-07T02:03:59;8.43;;;7.57;;
635;SDS011;302;50.206;8.196;2024-01-07T02:06:24;9.00;;;8.10;;
635;SDS011;302;50.206;8.196;2024-01-07T02:08:50;9.80;;;8.27;;
635;SDS011;302;50.206;8.196;2024-01-07T02:11:16;10.93;;;8.60;;
635;SDS011;302;50.206;8.196;2024-01-07T02:13:41;8.93;;;8.02;;
635;SDS011;302;50.206;8.196;2024-01-07T02:16:07;9.95;;;7.70;;
635;SDS011;302;50.206;8.196;2024-01-07T02:18:32;10.13;;;9.13;;
635;SDS011;302;50.206;8.196;2024-01-07T02:20:57;9.25;;;7.80;;
635;SDS011;302;50.206;8.196;2024-01-07T02:23:22;9.57;;;8.00;;
635;SDS011;302;50.206;8.196;2024-01-07T02:25:47;8.40;;;7.50;;
635;SDS011;302;50.206;8.196;2024-01-07T02:28:12;9.30;;;8.23;;
635;SDS011;302;50.206;8.196;2024-01-07T02:30:37;8.75;;;7.85;;
635;SDS011;302;50.206;8.196;2024-01-07T02:33:03;8.47;;;7.50;;
635;SDS011;302;50.206;8.196;2024-01-07T02:35:29;9.07;;;8.20;;
635;SDS011;302;50.206;8.196;2024-01-07T02:37:54;10.10;;;9.10;;
635;SDS011;302;50.206;8.196;2024-01-07T02:40:19;8.45;;;7.60;;
635;SDS011;302;50.206;8.196;2024-01-07T02:42:44;10.50;;;7.87;;
635;SDS011;302;50.206;8.196;2024-01-07T02:45:09;9.73;;;7.77;;
635;SDS011;302;50.206;8.196;2024-01-07T02:47:34;10.60;;;8.50;;
635;SDS011;302;50.206;8.196;2024-01-07T02:49:59;8.30;;;7.50;;
635;SDS011;302;50.206;8.196;2024-01-07T02:52:25;8.90;;;8.00;;
635;SDS011;302;50.206;8.196;2024-01-07T02:54:50;8.57;;;7.60;;
635;SDS011;302;50.206;8.196;2024-01-07T02:57:15;9.47;;;7.90;;
635;SDS011;302;50.206;8.196;2024-01-07T02:59:40;10.40;;;9.00;;
635;SDS011;302;50.206;8.196;2024-01-07T03:02:05;10.10;;;8.53;;
635;SDS011;302;50.206;8.196;2024-01-07T03:04:30;9.20;;;7.27;;
635;SDS011;302;50.206;8.196;2024-01-07T03:06:55;9.48;;;8.20;;
635;SDS011;302;50.206;8.196;2024-01-07T03:09:21;9.20;;;8.30;;
635;SDS011;302;50.206;8.196;2024-01-07T03:11:46;9.00;;;8.10;;
635;SDS011;302;50.206;8.196;2024-01-07T03:14:11;9.47;;;7.70;;
635;SDS011;302;50.206;8.196;2024-01-07T03:16:37;8.60;;;7.40;;
635;SDS011;302;50.206;8.196;2024-01-07T03:19:02;8.87;;;7.47;;
635;SDS011;302;50.206;8.196;2024-01-07T03:21:29;8.57;;;7.15;;
635;SDS011;302;50.206;8.196;2024-01-07T03:23:54;8.93;;;8.00;;
635;SDS011;302;50.206;8.196;2024-01-07T03:26:20;8.10;;;7.30;;
635;SDS011;302;50.206;8.196;2024-01-07T03:28:45;7.70;;;6.93;;
635;SDS011;302;50.206;8.196;2024-01-07T03:31:14;7.47;;;6.67;;
635;SDS011;302;50.206;8.196;2024-01-07T03:33:39;8.60;;;7.60;;
635;SDS011;302;50.206;8.196;2024-01-07T03:36:08;7.80;;;7.00;;
635;SDS011;302;50.206;8.196;2024-01-07T03:38:34;9.30;;;7.60;;
635;SDS011;302;50.206;8.196;2024-01-07T03:40:59;8.70;;;7.80;;
635;SDS011;302;50.206;8.196;2024-01-07T03:43:24;9.68;;;8.43;;
635;SDS011;302;50.206;8.196;2024-01-07T03:45:49;8.43;;;6.97;;
635;SDS011;302;50.206;8.196;2024-01-07T03:48:14;7.77;;;6.97;;
635;SDS011;302;50.206;8.196;2024-01-07T03:50:40;8.27;;;7.37;;
635;SDS011;302;50.206;8.196;2024-01-07T03:53:05;8.37;;;7.20;;
635;SDS011;302;50.206;8.196;2024-01-07T03:55:30;7.37;;;6.53;;
635;SDS011;302;50.206;8.196;2024-01-07T03:57:55;8.00;;;7.20;;
635;SDS011;302;50.206;8.196;2024-01-07T04:00:20;7.30;;;6.57;;
635;SDS011;302;50.206;8.196;2024-01-07T04:02:45;8.57;;;6.50;;
635;SDS011;302;50.206;8.196;2024-01-07T04:05:11;8.10;;;6.93;;
635;SDS011;302;50.206;8.196;2024-01-07T04:07:37;7.03;;;6.32;;
635;SDS011;302;50.206;8.196;2024-01-07T04:10:03;7.20;;;6.00;;
635;SDS011;302;50.206;8.196;2024-01-07T04:12:28;6.83;;;6.13;;
635;SDS011;302;50.206;8.196;2024-01-07T04:14:53;7.57;;;6.80;;
635;SDS011;302;50.206;8.196;2024-01-07T04:17:18;6.45;;;5.78;;
635;SDS011;302;50.206;8.196;2024-01-07T04:19:43;6.90;;;6.10;;
635;SDS011;302;50.206;8.196;2024-01-07T04:22:08;7.13;;;5.77;;
635;SDS011;302;50.206;8.196;2024-01-07T04:24:34;7.35;;;6.28;;
635;SDS011;302;50.206;8.196;2024-01-07T04:26:59;7.30;;;5.67;;
635;SDS011;302;50.206;8.196;2024-01-07T04:29:24;7.60;;;6.50;;
635;SDS011;302;50.206;8.196;2024-01-07T04:31:49;6.60;;;5.83;;
635;SDS011;302;50.206;8.196;2024-01-07T04:34:14;6.68;;;5.97;;
635;SDS011;302;50.206;8.196;2024-01-07T04:36:39;7.55;;;5.75;;
635;SDS011;302;50.206;8.196;2024-01-07T04:39:05;5.80;;;5.20;;
635;SDS011;302;50.206;8.196;2024-01-07T04:41:30;5.63;;;5.13;;
635;SDS011;302;50.206;8.196;2024-01-07T04:43:55;8.03;;;6.10;;
635;SDS011;302;50.206;8.196;2024-01-07T04:46:20;6.90;;;5.80;;
635;SDS011;302;50.206;8.196;2024-01-07T04:48:45;5.70;;;5.10;;
635;SDS011;302;50.206;8.196;2024-01-07T04:51:10;6.67;;;5.60;;
635;SDS011;302;50.206;8.196;2024-01-07T04:53:36;6.93;;;5.40;;
635;SDS011;302;50.206;8.196;2024-01-07T04:56:01;6.28;;;5.38;;
635;SDS011;302;50.206;8.196;2024-01-07T04:58:27;6.00;;;5.40;;
635;SDS011;302;50.206;8.196;2024-01-07T05:00:52;5.53;;;4.70;;
635;SDS011;302;50.206;8.196;2024-01-07T05:03:17;8.85;;;6.15;;
635;SDS011;302;50.206;8.196;2024-01-07T05:05:43;5.55;;;4.75;;
635;SDS011;302;50.206;8.196;2024-01-07T05:08:08;6.10;;;5.50;;
635;SDS011;302;50.206;8.196;2024-01-07T05:10:33;5.55;;;4.75;;
635;SDS011;302;50.206;8.196;2024-01-07T05:12:58;5.60;;;5.07;;
635;SDS011;302;50.206;8.196;2024-01-07T05:15:23;5.40;;;4.90;;
635;SDS011;302;50.206;8.196;2024-01-07T05:17:49;5.20;;;4.70;;
635;SDS011;302;50.206;8.196;2024-01-07T05:20:17;6.70;;;4.73;;
635;SDS011;302;50.206;8.196;2024-01-07T05:22:42;5.78;;;4.60;;
635;SDS011;302;50.206;8.196;2024-01-07T05:25:08;5.90;;;5.17;;
635;SDS011;302;50.206;8.196;2024-01-07T05:27:34;5.68;;;5.07;;
635;SDS011;302;50.206;8.196;2024-01-07T05:29:59;6.03;;;4.93;;
635;SDS011;302;50.206;8.196;2024-01-07T05:32:24;7.50;;;5.40;;
635;SDS011;302;50.206;8.196;2024-01-07T05:34:49;9.23;;;5.53;;
635;SDS011;302;50.206;8.196;2024-01-07T05:37:15;7.33;;;5.00;;
635;SDS011;302;50.206;8.196;2024-01-07T05:39:40;7.30;;;5.83;;
635;SDS011;302;50.206;8.196;2024-01-07T05:42:05;7.57;;;5.57;;
635;SDS011;302;50.206;8.196;2024-01-07T05:44:30;6.50;;;5.80;;
635;SDS011;302;50.206;8.196;2024-01-07T05:46:55;6.75;;;5.80;;
635;SDS011;302;50.206;8.196;2024-01-07T05:49:21;8.20;;;6.30;;
635;SDS011;302;50.206;8.196;2024-01-07T05:51:46;8.80;;;6.77;;
635;SDS011;302;50.206;8.196;2024-01-07T05:54:11;9.02;;;7.30;;
635;SDS011;302;50.206;8.196;2024-01-07T05:56:39;9.40;;;7.27;;
635;SDS011;302;50.206;8.196;2024-01-07T05:59:07;8.98;;;7.35;;
635;SDS011;302;50.206;8.196;2024-01-07T06:01:33;13.40;;;8.37;;
635;SDS011;302;50.206;8.196;2024-01-07T06:03:58;11.70;;;8.20;;
635;SDS011;302;50.206;8.196;2024-01-07T06:06:23;14.10;;;9.13;;
635;SDS011;302;50.206;8.196;2024-01-07T06:08:48;10.27;;;8.70;;
635;SDS011;302;50.206;8.196;2024-01-07T06:11:13;10.43;;;7.85;;
635;SDS011;302;50.206;8.196;2024-01-07T06:13:43;12.77;;;8.52;;
635;SDS011;302;50.206;8.196;2024-01-07T06:16:09;11.67;;;9.30;;
635;SDS011;302;50.206;8.196;2024-01-07T06:18:34;10.80;;;8.57;;
635;SDS011;302;50.206;8.196;2024-01-07T06:20:59;12.95;;;9.30;;
635;SDS011;302;50.206;8.196;2024-01-07T06:23:24;12.95;;;9.52;;
635;SDS011;302;50.206;8.196;2024-01-07T06:25:49;15.20;;;9.65;;
635;SDS011;302;50.206;8.196;2024-01-07T06:28:14;13.43;;;9.97;;
635;SDS011;302;50.206;8.196;2024-01-07T06:30:39;13.47;;;10.37;;
635;SDS011;302;50.206;8.196;2024-01-07T06:33:05;13.63;;;10.27;;
635;SDS011;302;50.206;8.196;2024-01-07T06:35:30;13.10;;;9.87;;
635;SDS011;302;50.206;8.196;2024-01-07T06:37:55;11.70;;;9.73;;
635;SDS011;302;50.206;8.196;2024-01-07T06:40:20;12.75;;;8.98;;
635;SDS011;302;50.206;8.196;2024-01-07T06:42:46;11.00;;;8.70;;
635;SDS011;302;50.206;8.196;2024-01-07T06:45:12;12.95;;;9.68;;
635;SDS011;302;50.206;8.196;2024-01-07T06:47:38;11.20;;;9.57;;
635;SDS011;302;50.206;8.196;2024-01-07T06:50:03;12.77;;;9.43;;
635;SDS011;302;50.206;8.196;2024-01-07T06:52:28;15.07;;;10.13;;
635;SDS011;302;50.206;8.196;2024-01-07T06:54:54;12.48;;;9.55;;
635;SDS011;302;50.206;8.196;2024-01-07T06:57:19;13.67;;;9.80;;
635;SDS011;302;50.206;8.196;2024-01-07T06:59:44;12.18;;;10.18;;
635;SDS011;302;50.206;8.196;2024-01-07T07:02:09;13.33;;;10.20;;
635;SDS011;302;50.206;8.196;2024-01-07T07:04:34;12.70;;;10.23;;
635;SDS011;302;50.206;8.196;2024-01-07T07:06:59;11.27;;;10.07;;
635;SDS011;302;50.206;8.196;2024-01-07T07:09:25;12.73;;;10.97;;
635;SDS011;302;50.206;8.196;2024-01-07T07:11:50;14.32;;;10.88;;
635;SDS011;302;50.206;8.196;2024-01-07T07:14:15;12.90;;;10.33;;
635;SDS011;302;50.206;8.196;2024-01-07T07:16:40;11.67;;;10.40;;
635;SDS011;302;50.206;8.196;2024-01-07T07:19:06;12.57;;;10.73;;
635;SDS011;302;50.206;8.196;2024-01-07T07:21:31;14.70;;;11.33;;
635;SDS011;302;50.206;8.196;2024-01-07T07:23:56;12.10;;;10.90;;
635;SDS011;302;50.206;8.196;2024-01-07T07:26:21;12.77;;;11.48;;
635;SDS011;302;50.206;8.196;2024-01-07T07:28:46;13.10;;;11.50;;
635;SDS011;302;50.206;8.196;2024-01-07T07:31:11;14.40;;;12.07;;
635;SDS011;302;50.206;8.196;2024-01-07T07:33:40;14.57;;;11.10;;
635;SDS011;302;50.206;8.196;2024-01-07T07:36:05;12.13;;;10.55;;
635;SDS011;302;50.206;8.196;2024-01-07T07:38:30;12.10;;;10.80;;
635;SDS011;302;50.206;8.196;2024-01-07T07:40:56;13.07;;;11.70;;
635;SDS011;302;50.206;8.196;2024-01-07T07:43:21;13.27;;;11.63;;
635;SDS011;302;50.206;8.196;2024-01-07T07:45:46;12.27;;;10.93;;
635;SDS011;302;50.206;8.196;2024-01-07T07:48:12;12.80;;;10.63;;
635;SDS011;302;50.206;8.196;2024-01-07T07:50:37;12.87;;;11.10;;
635;SDS011;302;50.206;8.196;2024-01-07T07:53:02;11.48;;;10.40;;
635;SDS011;302;50.206;8.196;2024-01-07T07:55:27;12.77;;;11.27;;
635;SDS011;302;50.206;8.196;2024-01-07T07:57:53;12.63;;;11.17;;
635;SDS011;302;50.206;8.196;2024-01-07T08:00:18;13.70;;;11.50;;
635;SDS011;302;50.206;8.196;2024-01-07T08:02:44;12.53;;;11.33;;
635;SDS011;302;50.206;8.196;2024-01-07T08:05:09;13.20;;;11.53;;
635;SDS011;302;50.206;8.196;2024-01-07T08:07:34;12.40;;;11.10;;
635;SDS011;302;50.206;8.196;2024-01-07T08:09:59;13.90;;;12.47;;
635;SDS011;302;50.206;8.196;2024-01-07T08:12:24;12.03;;;10.83;;
635;SDS011;302;50.206;8.196;2024-01-07T08:14:50;14.38;;;11.73;;
635;SDS011;302;50.206;8.196;2024-01-07T08:17:15;15.00;;;12.70;;
635;SDS011;302;50.206;8.196;2024-01-07T08:19:40;14.17;;;12.67;;
635;SDS011;302;50.206;8.196;2024-01-07T08:22:05;13.50;;;12.07;;
635;SDS011;302;50.206;8.196;2024-01-07T08:24:31;15.23;;;12.97;;
635;SDS011;302;50.206;8.196;2024-01-07T08:26:56;13.45;;;11.13;;
635;SDS011;302;50.206;8.196;2024-01-07T08:29:21;13.40;;;11.33;;
635;SDS011;302;50.206;8.196;2024-01-07T08:31:46;14.73;;;11.63;;
635;SDS011;302;50.206;8.196;2024-01-07T08:34:11;15.17;;;11.97;;
635;SDS011;302;50.206;8.196;2024-01-07T08:36:36;12.30;;;9.70;;
635;SDS011;302;50.206;8.196;2024-01-07T08:39:03;16.77;;;12.38;;
635;SDS011;302;50.206;8.196;2024-01-07T08:41:28;15.70;;;12.70;;
635;SDS011;302;50.206;8.196;2024-01-07T08:43:53;17.87;;;12.80;;
635;SDS011;302;50.206;8.196;2024-01-07T08:46:22;13.83;;;12.23;;
635;SDS011;302;50.206;8.196;2024-01-07T08:48:47;15.02;;;12.65;;
635;SDS011;302;50.206;8.196;2024-01-07T08:51:12;16.17;;;12.10;;
635;SDS011;302;50.206;8.196;2024-01-07T08:53:37;15.70;;;12.03;;
635;SDS011;302;50.206;8.196;2024-01-07T08:56:03;17.70;;;12.40;;
635;SDS011;302;50.206;8.196;2024-01-07T08:58:28;19.07;;;14.17;;
635;SDS011;302;50.206;8.196;2024-01-07T09:00:53;16.33;;;13.88;;
635;SDS011;302;50.206;8.196;2024-01-07T09:03:18;13.13;;;11.03;;
635;SDS011;302;50.206;8.196;2024-01-07T09:05:43;16.38;;;12.40;;
635;SDS011;302;50.206;8.196;2024-01-07T09:08:08;15.93;;;12.95;;
635;SDS011;302;50.206;8.196;2024-01-07T09:10:36;14.05;;;10.88;;
635;SDS011;302;50.206;8.196;2024-01-07T09:13:02;15.40;;;11.98;;
635;SDS011;302;50.206;8.196;2024-01-07T09:15:27;14.90;;;12.80;;
635;SDS011;302;50.206;8.196;2024-01-07T09:17:53;16.53;;;12.33;;
635;SDS011;302;50.206;8.196;2024-01-07T09:20:18;13.83;;;11.70;;
635;SDS011;302;50.206;8.196;2024-01-07T09:22:44;14.65;;;11.23;;
635;SDS011;302;50.206;8.196;2024-01-07T09:25:09;13.67;;;11.70;;
635;SDS011;302;50.206;8.196;2024-01-07T09:27:35;14.00;;;11.50;;
635;SDS011;302;50.206;8.196;2024-01-07T09:30:00;14.13;;;11.90;;
635;SDS011;302;50.206;8.196;2024-01-07T09:32:26;13.60;;;11.13;;
635;SDS011;302;50.206;8.196;2024-01-07T09:34:51;13.85;;;12.10;;
635;SDS011;302;50.206;8.196;2024-01-07T09:37:16;12.97;;;11.23;;
635;SDS011;302;50.206;8.196;2024-01-07T09:39:41;14.83;;;12.10;;
635;SDS011;302;50.206;8.196;2024-01-07T09:42:09;13.50;;;11.30;;
635;SDS011;302;50.206;8.196;2024-01-07T09:44:37;13.45;;;11.90;;
635;SDS011;302;50.206;8.196;2024-01-07T09:47:02;13.80;;;10.30;;
635;SDS011;302;50.206;8.196;2024-01-07T09:49:29;12.68;;;10.63;;
635;SDS011;302;50.206;8.196;2024-01-07T09:51:54;13.60;;;11.43;;
635;SDS011;302;50.206;8.196;2024-01-07T09:54:24;11.45;;;10.20;;
635;SDS011;302;50.206;8.196;2024-01-07T09:56:50;13.20;;;11.10;;
635;SDS011;302;50.206;8.196;2024-01-07T09:59:16;11.52;;;10.32;;
635;SDS011;302;50.206;8.196;2024-01-07T10:01:41;12.87;;;11.23;;
635;SDS011;302;50.206;8.196;2024-01-07T10:04:07;12.67;;;11.23;;
635;SDS011;302;50.206;8.196;2024-01-07T10:06:32;12.30;;;11.00;;
635;SDS011;302;50.206;8.196;2024-01-07T10:08:58;11.87;;;10.67;;
635;SDS011;302;50.206;8.196;2024-01-07T10:11:23;13.17;;;11.27;;
635;SDS011;302;50.206;8.196;2024-01-07T10:13:48;12.30;;;10.97;;
635;SDS011;302;50.206;8.196;2024-01-07T10:16:14;14.43;;;11.48;;
635;SDS011;302;50.206;8.196;2024-01-07T10:18:39;11.57;;;10.37;;
635;SDS011;302;50.206;8.196;2024-01-07T10:21:06;13.43;;;12.03;;
635;SDS011;302;50.206;8.196;2024-01-07T10:23:31;12.48;;;11.18;;
635;SDS011;302;50.206;8.196;2024-01-07T10:25:57;13.23;;;11.97;;
635;SDS011;302;50.206;8.196;2024-01-07T10:28:22;14.33;;;12.80;;
635;SDS011;302;50.206;8.196;2024-01-07T10:30:50;15.93;;;14.30;;
635;SDS011;302;50.206;8.196;2024-01-07T10:33:19;16.15;;;14.45;;
635;SDS011;302;50.206;8.196;2024-01-07T10:35:50;13.93;;;12.43;;
635;SDS011;302;50.206;8.196;2024-01-07T10:38:16;14.35;;;12.85;;
635;SDS011;302;50.206;8.196;2024-01-07T10:40:41;18.10;;;16.40;;
635;SDS011;302;50.206;8.196;2024-01-07T10:43:08;12.55;;;11.32;;
635;SDS011;302;50.206;8.196;2024-01-07T10:45:33;14.37;;;12.90;;
635;SDS011;302;50.206;8.196;2024-01-07T10:47:59;14.20;;;12.70;;
635;SDS011;302;50.206;8.196;2024-01-07T10:50:27;13.48;;;12.18;;
635;SDS011;302;50.206;8.196;2024-01-07T10:52:58;13.43;;;12.13;;
635;SDS011;302;50.206;8.196;2024-01-07T10:55:24;14.23;;;12.73;;
635;SDS011;302;50.206;8.196;2024-01-07T10:57:51;14.15;;;12.75;;
635;SDS011;302;50.206;8.196;2024-01-07T11:00:18;13.63;;;12.32;;
635;SDS011;302;50.206;8.196;2024-01-07T11:02:49;13.00;;;11.53;;
635;SDS011;302;50.206;8.196;2024-01-07T11:10:26;12.48;;;11.23;;
635;SDS011;302;50.206;8.196;2024-01-07T11:12:56;12.38;;;11.18;;
635;SDS011;302;50.206;8.196;2024-01-07T11:18:07;12.23;;;10.93;;
635;SDS011;302;50.206;8.196;2024-01-07T11:20:33;12.33;;;11.13;;
635;SDS011;302;50.206;8.196;2024-01-07T11:23:25;11.50;;;10.40;;
635;SDS011;302;50.206;8.196;2024-01-07T11:25:50;12.30;;;11.15;;
635;SDS011;302;50.206;8.196;2024-01-07T11:28:15;29.77;;;22.13;;
635;SDS011;302;50.206;8.196;2024-01-07T11:30:41;14.30;;;12.32;;
635;SDS011;302;50.206;8.196;2024-01-07T11:33:06;24.77;;;18.20;;
635;SDS011;302;50.206;8.196;2024-01-07T11:38:21;13.00;;;11.80;;
635;SDS011;302;50.206;8.196;2024-01-07T11:40:47;10.40;;;9.40;;
635;SDS011;302;50.206;8.196;2024-01-07T11:43:13;11.20;;;9.40;;
635;SDS011;302;50.206;8.196;2024-01-07T11:45:39;10.63;;;9.63;;
635;SDS011;302;50.206;8.196;2024-01-07T11:48:04;10.63;;;9.63;;
635;SDS011;302;50.206;8.196;2024-01-07T11:50:30;11.50;;;9.60;;
635;SDS011;302;50.206;8.196;2024-01-07T11:52:55;11.40;;;10.30;;
635;SDS011;302;50.206;8.196;2024-01-07T11:55:20;11.13;;;9.97;;
635;SDS011;302;50.206;8.196;2024-01-07T11:57:46;11.13;;;10.03;;
635;SDS011;302;50.206;8.196;2024-01-07T12:00:11;10.97;;;9.57;;
635;SDS011;302;50.206;8.196;2024-01-07T12:02:36;12.90;;;10.83;;
635;SDS011;302;50.206;8.196;2024-01-07T12:05:02;11.60;;;9.80;;
635;SDS011;302;50.206;8.196;2024-01-07T12:07:27;12.47;;;11.17;;
635;SDS011;302;50.206;8.196;2024-01-07T12:09:56;11.70;;;10.50;;
635;SDS011;302;50.206;8.196;2024-01-07T12:12:22;11.25;;;10.07;;
635;SDS011;302;50.206;8.196;2024-01-07T12:14:47;11.93;;;10.73;;
635;SDS011;302;50.206;8.196;2024-01-07T12:17:12;13.50;;;11.10;;
635;SDS011;302;50.206;8.196;2024-01-07T12:19:37;12.47;;;11.27;;
635;SDS011;302;50.206;8.196;2024-01-07T12:22:07;11.30;;;10.18;;
635;SDS011;302;50.206;8.196;2024-01-07T12:24:33;11.48;;;10.23;;
635;SDS011;302;50.206;8.196;2024-01-07T12:27:04;12.10;;;10.90;;
635;SDS011;302;50.206;8.196;2024-01-07T12:29:30;14.43;;;10.52;;
635;SDS011;302;50.206;8.196;2024-01-07T12:31:55;12.13;;;10.87;;
635;SDS011;302;50.206;8.196;2024-01-07T12:34:21;12.43;;;11.15;;
635;SDS011;302;50.206;8.196;2024-01-07T12:36:48;11.85;;;10.65;;
635;SDS011;302;50.206;8.196;2024-01-07T12:39:13;12.13;;;10.60;;
635;SDS011;302;50.206;8.196;2024-01-07T12:41:38;11.87;;;10.67;;
635;SDS011;302;50.206;8.196;2024-01-07T12:44:03;11.43;;;9.80;;
635;SDS011;302;50.206;8.196;2024-01-07T12:46:29;12.37;;;11.07;;
635;SDS011;302;50.206;8.196;2024-01-07T12:48:54;11.77;;;10.57;;
635;SDS011;302;50.206;8.196;2024-01-07T12:51:19;12.27;;;10.77;;
635;SDS011;302;50.206;8.196;2024-01-07T12:53:44;10.90;;;9.27;;
635;SDS011;302;50.206;8.196;2024-01-07T12:56:09;12.37;;;10.53;;
635;SDS011;302;50.206;8.196;2024-01-07T12:58:34;10.93;;;9.77;;
635;SDS011;302;50.206;8.196;2024-01-07T13:01:00;11.67;;;9.13;;
635;SDS011;302;50.206;8.196;2024-01-07T13:03:25;10.60;;;9.50;;
635;SDS011;302;50.206;8.196;2024-01-07T13:05:50;10.67;;;8.13;;
635;SDS011;302;50.206;8.196;2024-01-07T13:08:16;12.00;;;10.00;;
635;SDS011;302;50.206;8.196;2024-01-07T13:10:43;12.32;;;10.13;;
635;SDS011;302;50.206;8.196;2024-01-07T13:13:08;8.83;;;7.93;;
635;SDS011;302;50.206;8.196;2024-01-07T13:15:35;11.82;;;9.55;;
635;SDS011;302;50.206;8.196;2024-01-07T13:18:00;10.13;;;9.13;;
635;SDS011;302;50.206;8.196;2024-01-07T13:20:25;11.50;;;9.68;;
635;SDS011;302;50.206;8.196;2024-01-07T13:22:50;10.40;;;9.30;;
635;SDS011;302;50.206;8.196;2024-01-07T13:25:15;11.27;;;9.80;;
635;SDS011;302;50.206;8.196;2024-01-07T13:27:40;10.30;;;9.23;;
635;SDS011;302;50.206;8.196;2024-01-07T13:30:07;10.23;;;9.18;;
635;SDS011;302;50.206;8.196;2024-01-07T13:32:32;10.10;;;9.10;;
635;SDS011;302;50.206;8.196;2024-01-07T13:35:04;12.35;;;10.52;;
635;SDS011;302;50.206;8.196;2024-01-07T13:37:29;11.25;;;10.10;;
635;SDS011;302;50.206;8.196;2024-01-07T13:39:55;9.73;;;8.82;;
635;SDS011;302;50.206;8.196;2024-01-07T13:42:21;9.33;;;8.40;;
635;SDS011;302;50.206;8.196;2024-01-07T13:44:46;9.85;;;8.88;;
635;SDS011;302;50.206;8.196;2024-01-07T13:47:11;9.30;;;8.40;;
635;SDS011;302;50.206;8.196;2024-01-07T13:49:38;10.10;;;9.10;;
635;SDS011;302;50.206;8.196;2024-01-07T13:52:03;9.17;;;8.27;;
635;SDS011;302;50.206;8.196;2024-01-07T13:54:28;10.00;;;8.27;;
635;SDS011;302;50.206;8.196;2024-01-07T13:56:54;11.23;;;10.13;;
635;SDS011;302;50.206;8.196;2024-01-07T13:59:19;10.53;;;7.80;;
635;SDS011;302;50.206;8.196;2024-01-07T14:01:44;9.60;;;8.70;;
635;SDS011;302;50.206;8.196;2024-01-07T14:04:09;11.03;;;8.30;;
635;SDS011;302;50.206;8.196;2024-01-07T14:06:34;9.60;;;7.72;;
635;SDS011;302;50.206;8.196;2024-01-07T14:09:00;8.63;;;7.70;;
635;SDS011;302;50.206;8.196;2024-01-07T14:11:25;8.53;;;7.63;;
635;SDS011;302;50.206;8.196;2024-01-07T14:13:51;9.38;;;8.43;;
635;SDS011;302;50.206;8.196;2024-01-07T14:16:17;8.13;;;7.33;;
635;SDS011;302;50.206;8.196;2024-01-07T14:18:42;11.10;;;7.90;;
635;SDS011;302;50.206;8.196;2024-01-07T14:21:07;8.70;;;7.90;;
635;SDS011;302;50.206;8.196;2024-01-07T14:23:33;8.57;;;7.77;;
635;SDS011;302;50.206;8.196;2024-01-07T14:25:58;8.32;;;7.53;;
635;SDS011;302;50.206;8.196;2024-01-07T14:28:24;9.70;;;8.70;;
635;SDS011;302;50.206;8.196;2024-01-07T14:30:49;7.73;;;7.10;;
635;SDS011;302;50.206;8.196;2024-01-07T14:33:14;8.43;;;7.63;;
635;SDS011;302;50.206;8.196;2024-01-07T14:35:40;8.07;;;7.37;;
635;SDS011;302;50.206;8.196;2024-01-07T14:38:05;8.37;;;7.57;;
635;SDS011;302;50.206;8.196;2024-01-07T14:40:30;10.70;;;9.60;;
635;SDS011;302;50.206;8.196;2024-01-07T14:42:55;9.37;;;6.27;;
635;SDS011;302;50.206;8.196;2024-01-07T14:45:23;8.35;;;7.65;;
635;SDS011;302;50.206;8.196;2024-01-07T14:47:48;8.60;;;7.40;;
635;SDS011;302;50.206;8.196;2024-01-07T14:50:13;8.20;;;7.30;;
635;SDS011;302;50.206;8.196;2024-01-07T14:52:39;10.50;;;9.53;;
635;SDS011;302;50.206;8.196;2024-01-07T14:55:04;6.67;;;6.10;;
635;SDS011;302;50.206;8.196;2024-01-07T14:57:29;12.23;;;10.50;;
635;SDS011;302;50.206;8.196;2024-01-07T14:59:54;9.30;;;8.40;;
635;SDS011;302;50.206;8.196;2024-01-07T15:02:19;9.40;;;8.30;;
635;SDS011;302;50.206;8.196;2024-01-07T15:04:46;11.10;;;9.15;;
635;SDS011;302;50.206;8.196;2024-01-07T15:07:11;9.07;;;8.27;;
635;SDS011;302;50.206;8.196;2024-01-07T15:09:39;7.23;;;6.53;;
635;SDS011;302;50.206;8.196;2024-01-07T15:12:06;8.93;;;7.70;;
635;SDS011;302;50.206;8.196;2024-01-07T15:14:31;5.80;;;5.00;;
635;SDS011;302;50.206;8.196;2024-01-07T15:16:56;10.63;;;9.73;;
635;SDS011;302;50.206;8.196;2024-01-07T15:19:21;5.50;;;5.00;;
635;SDS011;302;50.206;8.196;2024-01-07T15:21:47;11.53;;;10.33;;
635;SDS011;302;50.206;8.196;2024-01-07T15:24:12;11.90;;;10.10;;
635;SDS011;302;50.206;8.196;2024-01-07T15:26:37;4.90;;;4.40;;
635;SDS011;302;50.206;8.196;2024-01-07T15:29:04;5.95;;;5.45;;